createdAt,value
2022-12-04T00:02:09.340Z,78.30
2022-12-04T00:04:37.787Z,73.10
2022-12-04T00:07:06.461Z,74.97
2022-12-04T00:09:35.194Z,77.07
2022-12-04T00:12:05.376Z,86.17
2022-12-04T00:14:34.501Z,82.40
2022-12-04T00:17:04.119Z,87.50
2022-12-04T00:19:33.954Z,76.43
2022-12-04T00:22:02.409Z,80.10
2022-12-04T00:24:30.958Z,76.17
2022-12-04T00:26:59.829Z,76.10
2022-12-04T00:29:28.311Z,72.90
2022-12-04T00:31:56.923Z,71.63
2022-12-04T00:34:25.327Z,80.67
2022-12-04T00:36:55.179Z,82.03
2022-12-04T00:39:23.573Z,85.33
2022-12-04T00:41:51.941Z,82.20
2022-12-04T00:44:20.356Z,78.17
2022-12-04T00:46:48.945Z,82.33
2022-12-04T00:49:17.387Z,72.57
2022-12-04T00:51:46.183Z,71.57
2022-12-04T00:54:16.024Z,68.50
2022-12-04T00:56:44.572Z,74.23
2022-12-04T00:59:13.637Z,71.17
2022-12-04T01:01:42.935Z,72.47
2022-12-04T01:04:11.406Z,76.27
2022-12-04T01:06:39.883Z,76.93
2022-12-04T01:09:08.391Z,69.57
2022-12-04T01:11:38.568Z,73.57
2022-12-04T01:14:06.996Z,70.87
2022-12-04T01:16:38.211Z,68.50
2022-12-04T01:19:09.108Z,68.40
2022-12-04T01:21:37.837Z,69.97
2022-12-04T01:24:06.822Z,65.93
2022-12-04T01:26:35.329Z,71.63
2022-12-04T01:29:05.746Z,76.50
2022-12-04T01:32:11.521Z,78.17
2022-12-04T01:34:40.155Z,69.60
2022-12-04T01:37:08.921Z,74.07
2022-12-04T01:39:37.964Z,80.40
2022-12-04T01:42:07.255Z,88.27
2022-12-04T01:44:37.033Z,81.27
2022-12-04T01:47:05.895Z,78.20
2022-12-04T01:49:39.547Z,85.57
2022-12-04T01:52:12.644Z,90.30
2022-12-04T01:54:45.528Z,80.90
2022-12-04T01:57:16.739Z,73.57
2022-12-04T01:59:51.589Z,74.73
2022-12-04T02:02:26.347Z,73.23
2022-12-04T02:04:55.830Z,68.93
2022-12-04T02:07:24.661Z,76.90
2022-12-04T02:09:56.432Z,75.80
2022-12-04T02:12:33.068Z,66.83
2022-12-04T02:15:10.442Z,75.53
2022-12-04T02:17:45.568Z,68.33
2022-12-04T02:20:24.041Z,71.37
2022-12-04T02:23:38.899Z,69.00
2022-12-04T02:26:21.013Z,67.17
2022-12-04T02:28:56.927Z,67.97
2022-12-04T02:31:32.816Z,75.07
2022-12-04T02:34:04.375Z,74.23
2022-12-04T02:36:37.881Z,73.30
2022-12-04T02:39:11.467Z,71.83
2022-12-04T02:41:45.115Z,83.50
2022-12-04T02:44:23.709Z,82.73
2022-12-04T02:46:57.757Z,80.37
2022-12-04T02:49:32.265Z,77.63
2022-12-04T02:52:02.336Z,80.53
2022-12-04T02:54:35.518Z,72.00
2022-12-04T02:57:07.581Z,75.07
2022-12-04T02:59:42.458Z,74.50
2022-12-04T03:02:16.212Z,75.13
2022-12-04T03:04:50.971Z,73.97
2022-12-04T03:07:26.651Z,83.80
2022-12-04T03:09:59.314Z,76.40
2022-12-04T03:12:32.246Z,71.87
2022-12-04T03:15:07.218Z,73.73
2022-12-04T03:17:41.701Z,85.70
2022-12-04T03:20:14.879Z,76.67
2022-12-04T03:22:50.541Z,80.60
2022-12-04T03:25:19.130Z,82.13
2022-12-04T03:27:55.782Z,107.70
2022-12-04T03:30:25.954Z,99.97
2022-12-04T03:33:00.012Z,89.37
2022-12-04T03:35:34.536Z,86.37
2022-12-04T03:38:11.926Z,100.63
2022-12-04T03:40:45.226Z,94.60
2022-12-04T03:43:18.197Z,116.10
2022-12-04T03:45:53.111Z,111.00
2022-12-04T03:48:25.251Z,116.37
2022-12-04T03:51:00.394Z,107.97
2022-12-04T03:53:35.081Z,92.20
2022-12-04T03:56:11.653Z,98.70
2022-12-04T03:58:45.979Z,100.00
2022-12-04T04:01:20.550Z,95.00
2022-12-04T04:03:53.345Z,99.63
2022-12-04T04:06:26.518Z,92.97
2022-12-04T04:09:01.515Z,91.83
2022-12-04T04:11:35.785Z,94.10
2022-12-04T04:14:25.196Z,94.37
2022-12-04T04:17:22.542Z,85.20
2022-12-04T04:20:14.517Z,81.80
2022-12-04T04:23:00.615Z,86.60
2022-12-04T04:25:30.290Z,84.90
2022-12-04T04:28:00.228Z,86.23
2022-12-04T04:30:30.755Z,84.70
2022-12-04T04:33:06.988Z,88.53
2022-12-04T04:35:43.379Z,76.43
2022-12-04T04:38:18.906Z,78.13
2022-12-04T04:40:55.676Z,70.70
2022-12-04T04:43:30.810Z,74.20
2022-12-04T04:46:04.637Z,68.63
2022-12-04T04:48:39.081Z,76.73
2022-12-04T04:51:08.116Z,79.23
2022-12-04T04:53:42.564Z,84.77
2022-12-04T04:56:11.482Z,94.37
2022-12-04T04:58:40.111Z,80.60
2022-12-04T05:01:11.505Z,78.33
2022-12-04T05:03:42.587Z,72.90
2022-12-04T05:06:11.465Z,78.83
2022-12-04T05:08:39.976Z,71.13
2022-12-04T05:11:12.216Z,71.50
2022-12-04T05:13:40.700Z,67.57
2022-12-04T05:16:12.141Z,68.27
2022-12-04T05:19:02.683Z,77.80
2022-12-04T05:21:30.257Z,69.93
2022-12-04T05:23:58.633Z,69.33
2022-12-04T05:26:27.218Z,71.47
2022-12-04T05:28:55.651Z,72.17
2022-12-04T05:31:24.149Z,77.73
2022-12-04T05:33:54.006Z,74.37
2022-12-04T05:36:22.436Z,69.47
2022-12-04T05:38:50.877Z,67.47
2022-12-04T05:41:19.298Z,74.23
2022-12-04T05:43:47.728Z,64.60
2022-12-04T05:46:16.170Z,70.33
2022-12-04T05:48:44.792Z,60.70
2022-12-04T05:51:14.573Z,72.10
2022-12-04T05:53:42.953Z,67.17
2022-12-04T05:56:12.785Z,62.03
2022-12-04T05:58:41.340Z,67.73
2022-12-04T06:01:12.070Z,72.37
2022-12-04T06:03:40.500Z,67.93
2022-12-04T06:06:20.753Z,65.93
2022-12-04T06:08:50.155Z,70.63
2022-12-04T06:11:21.663Z,74.00
2022-12-04T06:13:50.458Z,70.13
2022-12-04T06:16:21.373Z,73.63
2022-12-04T06:18:52.235Z,75.83
2022-12-04T06:21:23.685Z,71.13
2022-12-04T06:23:53.266Z,68.57
2022-12-04T06:26:22.512Z,81.30
2022-12-04T06:28:50.986Z,77.07
2022-12-04T06:31:20.388Z,79.87
2022-12-04T06:33:48.974Z,79.07
2022-12-04T06:36:19.587Z,85.60
2022-12-04T06:38:50.317Z,97.07
2022-12-04T06:41:20.703Z,103.97
2022-12-04T06:43:50.981Z,101.77
2022-12-04T06:46:21.377Z,95.63
2022-12-04T06:48:50.365Z,96.10
2022-12-04T06:51:21.738Z,109.43
2022-12-04T06:53:52.182Z,102.70
2022-12-04T06:56:23.415Z,105.40
2022-12-04T06:58:54.448Z,93.37
2022-12-04T07:01:25.045Z,85.83
2022-12-04T07:03:53.684Z,100.67
2022-12-04T07:06:24.265Z,88.87
2022-12-04T07:08:55.881Z,87.80
2022-12-04T07:11:25.064Z,94.47
2022-12-04T07:13:53.742Z,84.43
2022-12-04T07:16:24.013Z,91.93
2022-12-04T07:18:54.161Z,94.27
2022-12-04T07:21:23.736Z,98.70
2022-12-04T07:23:55.304Z,98.07
2022-12-04T07:26:24.035Z,97.03
2022-12-04T07:28:52.566Z,80.67
2022-12-04T07:31:23.101Z,79.43
2022-12-04T07:33:53.613Z,80.47
2022-12-04T07:36:22.938Z,78.73
2022-12-04T07:38:52.059Z,86.07
2022-12-04T07:41:22.211Z,73.70
2022-12-04T07:43:50.603Z,75.83
2022-12-04T07:46:22.077Z,83.23
2022-12-04T07:48:50.748Z,76.07
2022-12-04T07:51:21.833Z,72.80
2022-12-04T07:53:50.791Z,77.30
2022-12-04T07:56:20.289Z,85.43
2022-12-04T07:58:50.052Z,77.40
2022-12-04T08:01:20.396Z,87.53
2022-12-04T08:03:50.884Z,74.47
2022-12-04T08:06:20.119Z,80.87
2022-12-04T08:08:49.275Z,86.03
2022-12-04T08:11:20.299Z,79.00
2022-12-04T08:13:50.707Z,74.60
2022-12-04T08:16:19.178Z,74.00
2022-12-04T08:18:48.795Z,75.73
2022-12-04T08:21:20.822Z,75.63
2022-12-04T08:23:51.144Z,70.73
2022-12-04T08:26:20.732Z,77.17
2022-12-04T08:28:51.145Z,83.80
2022-12-04T08:31:21.903Z,79.10
2022-12-04T08:33:52.150Z,77.07
2022-12-04T08:36:22.633Z,75.60
2022-12-04T08:38:51.228Z,80.83
2022-12-04T08:41:24.277Z,82.40
2022-12-04T08:43:56.377Z,80.17
2022-12-04T08:46:27.337Z,79.90
2022-12-04T08:48:56.324Z,80.57
2022-12-04T08:51:27.216Z,76.17
2022-12-04T08:53:57.000Z,73.83
2022-12-04T08:56:26.424Z,78.40
2022-12-04T08:58:57.345Z,79.57
2022-12-04T09:01:27.295Z,71.50
2022-12-04T09:03:56.108Z,65.43
2022-12-04T09:06:25.019Z,66.90
2022-12-04T09:08:54.931Z,65.13
2022-12-04T09:11:25.062Z,70.20
2022-12-04T09:13:53.745Z,70.17
2022-12-04T09:16:26.142Z,67.43
2022-12-04T09:18:54.733Z,62.03
2022-12-04T09:21:24.886Z,70.77
2022-12-04T09:23:53.395Z,65.07
2022-12-04T09:26:23.940Z,63.17
2022-12-04T09:28:53.553Z,68.40
2022-12-04T09:31:24.925Z,68.93
2022-12-04T09:33:53.978Z,60.23
2022-12-04T09:36:22.629Z,59.43
2022-12-04T09:38:53.111Z,54.77
2022-12-04T09:41:33.336Z,53.23
2022-12-04T09:44:06.152Z,49.80
2022-12-04T09:46:39.606Z,57.83
2022-12-04T09:49:15.420Z,54.27
2022-12-04T09:51:44.548Z,51.47
2022-12-04T09:54:17.275Z,51.70
2022-12-04T09:56:48.456Z,49.37
2022-12-04T09:59:22.336Z,52.27
2022-12-04T10:01:57.957Z,50.93
2022-12-04T10:04:26.783Z,45.60
2022-12-04T10:07:02.262Z,55.17
2022-12-04T10:09:40.521Z,50.13
2022-12-04T10:12:22.541Z,48.07
2022-12-04T10:15:05.785Z,46.93
2022-12-04T10:17:52.342Z,47.17
2022-12-04T10:20:40.147Z,48.73
2022-12-04T10:23:21.701Z,50.27
2022-12-04T10:25:51.981Z,46.00
2022-12-04T10:28:27.873Z,48.00
2022-12-04T10:31:01.153Z,49.00
2022-12-04T10:33:38.481Z,45.00
2022-12-04T10:36:12.006Z,49.70
2022-12-04T10:38:46.624Z,48.50
2022-12-04T10:41:24.760Z,47.80
2022-12-04T10:43:53.430Z,43.73
2022-12-04T10:46:26.009Z,47.73
2022-12-04T10:48:59.519Z,47.37
2022-12-04T10:51:27.990Z,47.67
2022-12-04T10:53:58.850Z,51.97
2022-12-04T10:56:27.578Z,44.93
2022-12-04T10:58:59.429Z,49.57
2022-12-04T11:01:28.893Z,44.53
2022-12-04T11:04:02.241Z,43.13
2022-12-04T11:06:31.873Z,44.77
2022-12-04T11:09:01.484Z,43.47
2022-12-04T11:11:32.973Z,44.77
2022-12-04T11:14:07.247Z,39.80
2022-12-04T11:16:39.813Z,36.07
2022-12-04T11:19:24.845Z,37.43
2022-12-04T11:21:54.387Z,37.33
2022-12-04T11:24:25.180Z,39.17
2022-12-04T11:26:54.083Z,40.43
2022-12-04T11:29:27.891Z,38.23
2022-12-04T11:32:00.232Z,38.40
2022-12-04T11:34:38.358Z,34.27
2022-12-04T11:37:08.376Z,34.60
2022-12-04T11:39:40.549Z,33.60
2022-12-04T11:42:18.782Z,36.80
2022-12-04T11:44:56.458Z,35.00
2022-12-04T11:47:28.217Z,39.73
2022-12-04T11:50:14.257Z,33.33
2022-12-04T11:53:00.305Z,32.60
2022-12-04T11:55:39.411Z,30.70
2022-12-04T11:58:25.024Z,26.03
2022-12-04T12:01:11.469Z,31.73
2022-12-04T12:03:45.342Z,31.63
2022-12-04T12:06:34.672Z,39.73
2022-12-04T12:09:14.105Z,35.50
2022-12-04T12:11:48.428Z,34.23
2022-12-04T12:14:24.624Z,32.43
2022-12-04T12:17:03.552Z,38.27
2022-12-04T12:20:06.777Z,38.70
2022-12-04T12:23:09.778Z,35.87
2022-12-04T12:25:51.753Z,43.40
2022-12-04T12:28:36.421Z,38.60
2022-12-04T12:31:31.738Z,31.33
2022-12-04T12:34:05.557Z,29.43
2022-12-04T12:36:43.754Z,31.83
2022-12-04T12:39:20.667Z,32.83
2022-12-04T12:41:53.221Z,30.73
2022-12-04T12:44:26.950Z,26.67
2022-12-04T12:47:00.191Z,29.40
2022-12-04T12:49:32.497Z,25.07
2022-12-04T12:52:06.666Z,29.47
2022-12-04T12:54:45.536Z,30.07
2022-12-04T12:57:20.047Z,28.07
2022-12-04T12:59:53.113Z,26.70
2022-12-04T13:02:28.752Z,27.27
2022-12-04T13:05:01.530Z,25.40
2022-12-04T13:07:40.845Z,24.30
2022-12-04T13:10:16.462Z,26.07
2022-12-04T13:12:48.999Z,23.43
2022-12-04T13:15:18.624Z,24.13
2022-12-04T13:17:50.488Z,27.37
2022-12-04T13:20:23.949Z,28.73
2022-12-04T13:23:02.778Z,31.57
2022-12-04T13:25:43.923Z,30.77
2022-12-04T13:28:29.575Z,24.93
2022-12-04T13:31:04.718Z,30.00
2022-12-04T13:33:56.053Z,29.97
2022-12-04T13:36:47.543Z,25.23
2022-12-04T13:39:52.086Z,26.57
2022-12-04T13:42:27.371Z,24.80
2022-12-04T13:44:58.731Z,23.27
2022-12-04T13:47:30.018Z,29.40
2022-12-04T13:50:10.720Z,30.73
2022-12-04T13:52:41.502Z,36.23
2022-12-04T13:55:28.779Z,33.03
2022-12-04T13:58:01.792Z,42.23
2022-12-04T14:00:32.961Z,36.40
2022-12-04T14:03:05.307Z,35.90
2022-12-04T14:05:42.368Z,26.13
2022-12-04T14:08:25.642Z,32.73
2022-12-04T14:11:03.958Z,32.33
2022-12-04T14:13:44.788Z,29.07
2022-12-04T14:16:25.831Z,30.10
2022-12-04T14:18:56.727Z,37.37
2022-12-04T14:21:26.064Z,33.90
2022-12-04T14:23:55.122Z,32.90
2022-12-04T14:26:48.890Z,41.47
2022-12-04T14:29:36.247Z,38.47
2022-12-04T14:32:11.133Z,36.37
2022-12-04T14:34:40.137Z,40.40
2022-12-04T14:37:08.825Z,39.13
2022-12-04T14:39:43.694Z,46.10
2022-12-04T14:42:16.155Z,39.93
2022-12-04T14:44:48.149Z,52.47
2022-12-04T14:47:25.181Z,54.73
2022-12-04T14:50:10.590Z,41.93
2022-12-04T14:52:45.108Z,44.07
2022-12-04T14:55:24.015Z,37.90
2022-12-04T14:57:57.041Z,43.50
2022-12-04T15:00:27.998Z,38.20
2022-12-04T15:03:00.349Z,43.60
2022-12-04T15:05:31.807Z,51.63
2022-12-04T15:08:03.261Z,66.60
2022-12-04T15:10:51.768Z,56.17
2022-12-04T15:13:28.138Z,47.80
2022-12-04T15:15:58.375Z,41.97
2022-12-04T15:18:26.900Z,43.90
2022-12-04T15:20:59.876Z,38.77
2022-12-04T15:23:31.491Z,35.07
2022-12-04T15:26:03.598Z,41.73
2022-12-04T15:28:36.746Z,36.17
2022-12-04T15:31:12.968Z,41.47
2022-12-04T15:33:42.878Z,42.63
2022-12-04T15:36:21.550Z,39.70
2022-12-04T15:38:51.906Z,36.57
2022-12-04T15:41:33.344Z,36.07
2022-12-04T15:44:02.428Z,39.47
2022-12-04T15:46:35.800Z,40.23
2022-12-04T15:49:09.708Z,47.37
2022-12-04T15:51:38.209Z,80.90
2022-12-04T15:54:07.156Z,72.20
2022-12-04T15:56:35.664Z,64.27
2022-12-04T15:59:04.209Z,49.73
2022-12-04T16:01:41.924Z,50.70
2022-12-04T16:04:22.656Z,46.83
2022-12-04T16:06:54.073Z,45.17
2022-12-04T16:09:24.850Z,39.33
2022-12-04T16:12:01.676Z,38.13
2022-12-04T16:14:30.298Z,36.73
2022-12-04T16:17:06.287Z,38.77
2022-12-04T16:19:38.918Z,39.10
2022-12-04T16:22:18.242Z,41.33
2022-12-04T16:24:48.615Z,37.40
2022-12-04T16:27:20.260Z,41.57
2022-12-04T16:29:48.722Z,37.40
2022-12-04T16:32:21.405Z,34.97
2022-12-04T16:34:50.691Z,38.60
2022-12-04T16:37:20.867Z,34.57
2022-12-04T16:39:49.628Z,39.70
2022-12-04T16:42:21.002Z,38.63
2022-12-04T16:44:49.750Z,41.30
2022-12-04T16:47:21.036Z,42.37
2022-12-04T16:49:51.642Z,39.57
2022-12-04T16:52:21.125Z,39.03
2022-12-04T16:54:50.125Z,45.57
2022-12-04T16:57:18.546Z,35.13
2022-12-04T16:59:46.918Z,41.33
2022-12-04T17:02:26.637Z,39.67
2022-12-04T17:04:57.782Z,40.73
2022-12-04T17:07:26.826Z,38.40
2022-12-04T17:09:55.204Z,39.63
2022-12-04T17:12:23.682Z,38.00
2022-12-04T17:14:52.271Z,41.53
2022-12-04T17:17:22.304Z,40.73
2022-12-04T17:19:50.707Z,46.47
2022-12-04T17:22:21.250Z,46.43
2022-12-04T17:24:55.754Z,46.83
2022-12-04T17:27:25.556Z,47.87
2022-12-04T17:29:54.090Z,49.07
2022-12-04T17:32:24.045Z,45.27
2022-12-04T17:34:55.192Z,44.10
2022-12-04T17:37:23.795Z,44.10
2022-12-04T17:39:52.242Z,43.80
2022-12-04T17:42:20.755Z,42.37
2022-12-04T17:44:49.190Z,44.53
2022-12-04T17:47:17.672Z,41.53
2022-12-04T17:49:47.669Z,42.20
2022-12-04T17:52:16.635Z,38.10
2022-12-04T17:54:45.039Z,42.50
2022-12-04T17:57:13.485Z,43.87
2022-12-04T17:59:42.252Z,39.80
2022-12-04T18:02:11.415Z,41.93
2022-12-04T18:04:39.898Z,45.53
2022-12-04T18:07:10.268Z,44.80
2022-12-04T18:09:39.184Z,44.03
2022-12-04T18:12:07.815Z,48.33
2022-12-04T18:14:37.310Z,42.87
2022-12-04T18:17:05.862Z,46.77
2022-12-04T18:19:34.526Z,43.83
2022-12-04T18:22:03.090Z,47.53
2022-12-04T18:24:32.917Z,47.70
2022-12-04T18:27:01.459Z,47.03
2022-12-04T18:29:29.873Z,40.83
2022-12-04T18:31:58.492Z,48.03
2022-12-04T18:34:30.074Z,49.00
2022-12-04T18:36:58.608Z,43.23
2022-12-04T18:39:27.576Z,40.33
2022-12-04T18:41:57.916Z,42.63
2022-12-04T18:44:26.818Z,42.97
2022-12-04T18:46:55.223Z,45.73
2022-12-04T18:49:23.700Z,47.33
2022-12-04T18:51:55.068Z,52.83
2022-12-04T18:54:25.602Z,60.23
2022-12-04T18:56:54.831Z,61.77
2022-12-04T18:59:27.143Z,56.27
2022-12-04T19:01:56.629Z,56.17
2022-12-04T19:04:26.448Z,69.70
2022-12-04T19:06:56.431Z,61.10
2022-12-04T19:12:15.876Z,50.93
2022-12-04T19:14:45.769Z,58.60
2022-12-04T19:17:15.325Z,71.23
2022-12-04T19:19:43.818Z,64.47
2022-12-04T19:22:12.275Z,66.23
2022-12-04T19:24:40.877Z,63.47
2022-12-04T19:27:12.184Z,64.97
2022-12-04T19:29:41.136Z,61.33
2022-12-04T19:32:12.620Z,61.27
2022-12-04T19:34:41.605Z,56.63
2022-12-04T19:37:09.951Z,52.90
2022-12-04T19:39:38.560Z,50.40
2022-12-04T19:42:07.683Z,55.67
2022-12-04T19:44:51.724Z,50.13
2022-12-04T19:47:21.589Z,53.60
2022-12-04T19:49:51.219Z,53.37
2022-12-04T19:52:19.687Z,54.50
2022-12-04T19:54:48.157Z,54.73
2022-12-04T19:57:17.101Z,51.27
2022-12-04T19:59:46.790Z,53.83
2022-12-04T20:02:15.825Z,51.77
2022-12-04T20:04:45.959Z,53.47
2022-12-04T20:07:14.411Z,53.33
2022-12-04T20:09:47.356Z,60.27
2022-12-04T20:12:19.447Z,57.80
2022-12-04T20:14:49.073Z,55.83
2022-12-04T20:17:17.538Z,53.40
2022-12-04T20:19:47.370Z,54.63
2022-12-04T20:22:16.112Z,54.30
2022-12-04T20:24:44.990Z,52.83
2022-12-04T20:27:13.643Z,50.60
2022-12-04T20:29:42.047Z,90.27
2022-12-04T20:32:10.722Z,172.33
2022-12-04T20:34:43.545Z,93.47
2022-12-04T20:37:13.805Z,49.43
2022-12-04T20:39:42.263Z,54.93
2022-12-04T20:42:10.890Z,112.07
2022-12-04T20:44:39.600Z,145.73
2022-12-04T20:47:08.177Z,121.83
2022-12-04T20:49:37.254Z,59.70
2022-12-04T20:52:06.739Z,51.83
2022-12-04T20:54:41.345Z,49.50
2022-12-04T20:57:10.754Z,55.37
2022-12-04T20:59:39.664Z,50.23
2022-12-04T21:02:08.731Z,48.60
2022-12-04T21:04:38.861Z,72.70
2022-12-04T21:07:07.550Z,66.73
2022-12-04T21:09:37.390Z,75.90
2022-12-04T21:12:32.467Z,63.03
2022-12-04T21:15:17.982Z,57.73
2022-12-04T21:17:47.371Z,58.07
2022-12-04T21:20:16.562Z,52.67
2022-12-04T21:22:45.754Z,58.00
2022-12-04T21:25:15.976Z,60.47
2022-12-04T21:27:47.123Z,62.00
2022-12-04T21:30:16.568Z,64.17
2022-12-04T21:32:44.939Z,64.50
2022-12-04T21:35:13.339Z,74.47
2022-12-04T21:37:42.259Z,70.83
2022-12-04T21:40:12.203Z,62.97
2022-12-04T21:42:44.506Z,66.57
2022-12-04T21:45:13.451Z,62.93
2022-12-04T21:47:43.071Z,56.53
2022-12-04T21:50:12.669Z,60.50
2022-12-04T21:52:41.317Z,62.97
2022-12-04T21:55:10.571Z,63.13
2022-12-04T21:57:39.725Z,65.07
2022-12-04T22:00:11.296Z,61.97
2022-12-04T22:02:40.924Z,133.33
2022-12-04T22:05:10.257Z,96.00
2022-12-04T22:07:40.032Z,138.83
2022-12-04T22:10:11.084Z,68.13
2022-12-04T22:12:49.488Z,64.53
2022-12-04T22:15:20.312Z,72.37
2022-12-04T22:17:49.130Z,74.17
2022-12-04T22:20:18.550Z,72.77
2022-12-04T22:22:47.300Z,67.80
2022-12-04T22:25:16.946Z,69.03
2022-12-04T22:27:45.584Z,68.00
2022-12-04T22:30:15.248Z,63.57
2022-12-04T22:32:46.160Z,65.50
2022-12-04T22:35:15.075Z,86.23
2022-12-04T22:37:44.657Z,74.07
2022-12-04T22:40:15.377Z,81.23
2022-12-04T22:42:44.055Z,66.03
2022-12-04T22:45:13.269Z,56.80
2022-12-04T22:47:43.098Z,62.80
2022-12-04T22:50:13.567Z,60.33
2022-12-04T22:52:43.096Z,63.57
2022-12-04T22:55:11.607Z,63.33
2022-12-04T22:57:40.456Z,64.57
2022-12-04T23:00:11.402Z,62.37
2022-12-04T23:02:42.776Z,62.50
2022-12-04T23:05:13.438Z,64.37
2022-12-04T23:07:42.723Z,68.50
2022-12-04T23:10:11.331Z,59.33
2022-12-04T23:12:39.847Z,57.20
2022-12-04T23:15:09.600Z,52.57
2022-12-04T23:17:38.012Z,58.13
2022-12-04T23:20:07.613Z,56.07
2022-12-04T23:22:38.017Z,52.63
2022-12-04T23:25:07.623Z,51.60
2022-12-04T23:27:36.248Z,52.10
2022-12-04T23:30:05.936Z,51.67
2022-12-04T23:32:35.641Z,48.17
2022-12-04T23:35:05.116Z,58.90
2022-12-04T23:37:34.271Z,55.37
2022-12-04T23:40:05.035Z,59.67
2022-12-04T23:42:34.239Z,55.87
2022-12-04T23:45:03.732Z,61.07
2022-12-04T23:47:32.842Z,55.37
2022-12-04T23:50:01.510Z,59.33
2022-12-04T23:52:29.937Z,65.63
2022-12-04T23:54:58.398Z,59.40
2022-12-04T23:57:30.153Z,61.40
2022-12-04T23:59:58.654Z,69.37
